Round Hill, Nevada
Current Conditions -  °F | °C
As of 6:53 AM on Sunday 21 Dec 2014 (Local Time) from KTVL Reporting Station
Clear Clear  
Wind Chill: 39°   Ceiling: Unl
Heat Index: 45°   Visibility: 10mi
Dew Point: 37°   Wind: 14mph
Humidity: 74%   Direction: 200°SSW
Pressure: 30.26"   Gusts: 24mph
Location:  39.0164°N, 119.925°W
Report Text: KTVL 211453Z AUTO 20012G21KT 10SM CLR 07/03 A3026 RMK AO2 SLP227 T00720028 53004
Loading
Personal Weather Stations






























Interactive Weather Map New forecast layout! Learn more

10-Day Weather Forecast

Advertisements
Track Severe Weather on mobile